Time;durP1;ratioP1;P1;durP2;ratioP2;P2;SDS_P1;SDS_P2;PMS_P1;PMS_P2;Temp;Humidity;BMP_temperature;BMP_pressure;BME280_temperature;BME280_humidity;BME280_pressure;Samples;Min_cycle;Max_cycle;Signal;HPM_P1;HPM_P2
2022/09/25 00:00:59;;;;;;;11.57;4.80;;;;;;;;;;5096143;28;20438;-70
2022/09/25 00:03:28;;;;;;;10.63;4.67;;;;;;;;;;5095776;28;20444;-70
2022/09/25 00:06:01;;;;;;;5.70;4.53;;;;;;;;;;5096069;28;20445;-70
2022/09/25 00:08:28;;;;;;;11.03;4.90;;;;;;;;;;5096434;28;20784;-70
2022/09/25 00:10:55;;;;;;;8.10;4.50;;;;;;;;;;5095987;28;20433;-70
2022/09/25 00:13:24;;;;;;;13.43;5.27;;;;;;;;;;5095891;28;20441;-70
2022/09/25 00:15:53;;;;;;;12.83;4.77;;;;;;;;;;5095781;28;20446;-70
2022/09/25 00:19:48;;;;;;;7.53;4.33;;;;;;;;;;5095547;28;20437;-71
2022/09/25 00:21:08;;;;;;;11.43;3.70;;;;;;;;;;5095724;28;20946;-70
2022/09/25 00:23:36;;;;;;;12.30;4.20;;;;;;;;;;5095942;28;20494;-70
2022/09/25 00:26:04;;;;;;;7.87;4.23;;;;;;;;;;5095542;28;20445;-70
2022/09/25 00:28:33;;;;;;;6.93;3.93;;;;;;;;;;5095176;28;20484;-70
2022/09/25 00:31:00;;;;;;;7.20;4.10;;;;;;;;;;5095249;28;20454;-71
2022/09/25 00:33:27;;;;;;;6.57;3.43;;;;;;;;;;5095203;28;20951;-71
2022/09/25 00:35:54;;;;;;;11.80;4.13;;;;;;;;;;5095494;28;20441;-70
2022/09/25 00:38:22;;;;;;;5.17;3.40;;;;;;;;;;5095557;28;20442;-70
2022/09/25 00:40:49;;;;;;;5.70;3.23;;;;;;;;;;5095348;28;20464;-70
2022/09/25 00:43:17;;;;;;;10.47;3.37;;;;;;;;;;5095292;28;20439;-70
2022/09/25 00:45:45;;;;;;;12.77;4.23;;;;;;;;;;5094944;28;20452;-70
2022/09/25 00:48:15;;;;;;;8.10;3.77;;;;;;;;;;5094965;28;20531;-70
2022/09/25 00:50:47;;;;;;;5.50;3.23;;;;;;;;;;5095149;28;20479;-70
2022/09/25 00:53:17;;;;;;;10.87;3.43;;;;;;;;;;5095047;28;20425;-70
2022/09/25 00:55:46;;;;;;;4.87;3.53;;;;;;;;;;5094780;28;20468;-71
2022/09/25 00:58:15;;;;;;;11.43;5.07;;;;;;;;;;5094882;28;20546;-70
2022/09/25 01:00:42;;;;;;;12.53;3.33;;;;;;;;;;5094960;28;20452;-70
2022/09/25 01:03:11;;;;;;;15.63;4.80;;;;;;;;;;5095084;28;20797;-70
2022/09/25 01:05:39;;;;;;;7.73;3.83;;;;;;;;;;5094658;28;20967;-70
2022/09/25 01:08:09;;;;;;;14.13;3.40;;;;;;;;;;5095301;28;20488;-70
2022/09/25 01:10:36;;;;;;;12.13;3.70;;;;;;;;;;5094107;28;20850;-71
2022/09/25 01:13:04;;;;;;;6.40;2.83;;;;;;;;;;5094806;28;20980;-70
2022/09/25 01:15:34;;;;;;;6.37;3.10;;;;;;;;;;5095043;28;20479;-70
2022/09/25 01:18:05;;;;;;;8.30;3.37;;;;;;;;;;5095155;28;20424;-70
2022/09/25 01:20:56;;;;;;;8.10;3.50;;;;;;;;;;5094901;28;20510;-71
2022/09/25 01:23:31;;;;;;;8.37;3.23;;;;;;;;;;5094983;28;20511;-71
2022/09/25 01:26:05;;;;;;;7.13;2.90;;;;;;;;;;5094692;28;20440;-70
2022/09/25 01:28:56;;;;;;;8.80;3.00;;;;;;;;;;5094901;28;20473;-70
2022/09/25 01:31:28;;;;;;;5.70;2.77;;;;;;;;;;5074385;28;20932;-70
2022/09/25 01:33:59;;;;;;;5.27;2.83;;;;;;;;;;5094775;28;20426;-70
2022/09/25 01:36:29;;;;;;;16.50;5.73;;;;;;;;;;5094776;28;20449;-70
2022/09/25 01:38:58;;;;;;;9.27;3.23;;;;;;;;;;5094116;28;20941;-71
2022/09/25 01:41:28;;;;;;;11.60;3.63;;;;;;;;;;5094340;28;20864;-70
2022/09/25 01:43:59;;;;;;;8.10;3.10;;;;;;;;;;5094832;28;20766;-70
2022/09/25 01:46:29;;;;;;;10.40;3.67;;;;;;;;;;5094234;28;20970;-70
2022/09/25 01:48:57;;;;;;;7.20;3.20;;;;;;;;;;5093947;28;20428;-71
2022/09/25 01:51:27;;;;;;;8.07;2.93;;;;;;;;;;5094455;28;20528;-70
2022/09/25 01:53:56;;;;;;;7.20;3.03;;;;;;;;;;5093740;28;20452;-71
2022/09/25 01:56:31;;;;;;;14.40;3.50;;;;;;;;;;5094128;28;20846;-70
2022/09/25 01:59:01;;;;;;;7.23;3.20;;;;;;;;;;5094276;28;20594;-71
2022/09/25 02:01:32;;;;;;;10.40;4.23;;;;;;;;;;5093941;28;20460;-70
2022/09/25 02:04:00;;;;;;;11.80;3.83;;;;;;;;;;5093609;28;20453;-71
2022/09/25 02:06:28;;;;;;;6.37;3.00;;;;;;;;;;5093821;28;20435;-71
2022/09/25 02:08:58;;;;;;;12.40;3.90;;;;;;;;;;5093549;28;20445;-71
2022/09/25 02:11:28;;;;;;;11.13;2.80;;;;;;;;;;5093837;28;20427;-71
2022/09/25 02:13:57;;;;;;;5.77;3.20;;;;;;;;;;5093550;28;20432;-70
2022/09/25 02:16:28;;;;;;;12.30;3.90;;;;;;;;;;5093293;28;20432;-70
2022/09/25 02:21:45;;;;;;;8.70;3.53;;;;;;;;;;5093390;28;20508;-70
2022/09/25 02:24:17;;;;;;;12.33;3.47;;;;;;;;;;5093580;28;20838;-70
2022/09/25 02:26:44;;;;;;;10.33;3.97;;;;;;;;;;5093199;28;20428;-70
2022/09/25 02:29:11;;;;;;;7.27;3.17;;;;;;;;;;5092975;28;20957;-71
2022/09/25 02:31:41;;;;;;;11.90;5.00;;;;;;;;;;5093138;28;20461;-70
2022/09/25 02:34:10;;;;;;;6.67;2.87;;;;;;;;;;5093272;28;20813;-70
2022/09/25 02:36:37;;;;;;;11.50;3.33;;;;;;;;;;5092951;28;20948;-70
2022/09/25 02:39:06;;;;;;;9.33;3.10;;;;;;;;;;5093341;28;20482;-70
2022/09/25 02:41:40;;;;;;;7.83;2.63;;;;;;;;;;5093681;28;20441;-71
2022/09/25 02:44:11;;;;;;;10.73;2.97;;;;;;;;;;5093380;28;20601;-70
2022/09/25 02:46:43;;;;;;;10.03;3.53;;;;;;;;;;5093270;28;20481;-70
2022/09/25 02:49:16;;;;;;;8.40;3.23;;;;;;;;;;5092973;28;20936;-71
2022/09/25 02:51:47;;;;;;;6.93;2.60;;;;;;;;;;5093560;28;20429;-70
2022/09/25 02:54:20;;;;;;;3.70;3.00;;;;;;;;;;5092853;28;20531;-70
2022/09/25 02:56:49;;;;;;;12.17;3.37;;;;;;;;;;5093550;28;20477;-70
2022/09/25 02:59:19;;;;;;;9.80;3.10;;;;;;;;;;5093616;28;20443;-70
2022/09/25 03:01:47;;;;;;;12.00;3.20;;;;;;;;;;5093338;28;20408;-70
2022/09/25 03:04:18;;;;;;;9.37;3.13;;;;;;;;;;5093445;28;20455;-70
2022/09/25 03:06:45;;;;;;;6.40;3.07;;;;;;;;;;5093422;28;20424;-70
2022/09/25 03:09:13;;;;;;;9.40;3.17;;;;;;;;;;5093086;28;20534;-70
2022/09/25 03:11:42;;;;;;;8.73;3.50;;;;;;;;;;5093011;28;20612;-69
2022/09/25 03:14:10;;;;;;;9.83;3.30;;;;;;;;;;5092627;28;20973;-71
2022/09/25 03:16:40;;;;;;;11.73;3.10;;;;;;;;;;5092861;28;20487;-71
2022/09/25 03:19:07;;;;;;;9.83;2.73;;;;;;;;;;5092746;28;20445;-70
2022/09/25 03:21:36;;;;;;;6.50;2.77;;;;;;;;;;5092520;28;20435;-69
2022/09/25 03:24:03;;;;;;;5.47;3.20;;;;;;;;;;5093028;28;20439;-71
2022/09/25 03:26:30;;;;;;;8.93;3.33;;;;;;;;;;5092902;28;20963;-69
2022/09/25 03:29:00;;;;;;;6.63;3.57;;;;;;;;;;5092886;28;20494;-70
2022/09/25 03:31:28;;;;;;;8.13;3.87;;;;;;;;;;5092993;28;20479;-71
2022/09/25 03:33:56;;;;;;;12.90;3.10;;;;;;;;;;5095087;28;20916;-70
2022/09/25 03:36:24;;;;;;;7.37;3.10;;;;;;;;;;5096436;28;20479;-70
2022/09/25 03:38:54;;;;;;;6.37;3.00;;;;;;;;;;5096262;28;20538;-70
2022/09/25 03:41:22;;;;;;;14.70;3.37;;;;;;;;;;5096346;28;20944;-69
2022/09/25 03:43:50;;;;;;;11.77;3.70;;;;;;;;;;5096563;28;20439;-70
2022/09/25 03:46:18;;;;;;;10.33;2.97;;;;;;;;;;5096250;28;20451;-70
2022/09/25 03:48:46;;;;;;;8.10;2.87;;;;;;;;;;5096399;28;20530;-70
2022/09/25 03:51:13;;;;;;;7.97;2.77;;;;;;;;;;5097096;28;20510;-70
2022/09/25 03:53:41;;;;;;;8.63;3.03;;;;;;;;;;5096056;28;20965;-70
2022/09/25 03:56:12;;;;;;;10.17;3.70;;;;;;;;;;5096347;28;20493;-70
2022/09/25 03:58:39;;;;;;;9.07;3.37;;;;;;;;;;5096276;28;20470;-70
2022/09/25 04:01:07;;;;;;;8.83;3.03;;;;;;;;;;5095955;28;20437;-68
2022/09/25 04:03:34;;;;;;;11.07;3.83;;;;;;;;;;5096191;28;20450;-70
2022/09/25 04:06:03;;;;;;;6.03;2.70;;;;;;;;;;5096250;28;20442;-70
2022/09/25 04:08:30;;;;;;;3.73;2.57;;;;;;;;;;5096273;28;20895;-70
2022/09/25 04:10:59;;;;;;;7.17;3.17;;;;;;;;;;5096113;28;20438;-70
2022/09/25 04:13:29;;;;;;;12.47;3.20;;;;;;;;;;5095855;28;20845;-69
2022/09/25 04:15:56;;;;;;;8.53;3.47;;;;;;;;;;5095698;28;20480;-71
2022/09/25 04:18:24;;;;;;;14.10;3.27;;;;;;;;;;5094673;28;20812;-69
2022/09/25 04:20:51;;;;;;;9.83;3.50;;;;;;;;;;5095891;28;20526;-70
2022/09/25 04:23:18;;;;;;;13.10;3.00;;;;;;;;;;5095729;28;20467;-70
2022/09/25 04:25:46;;;;;;;7.67;2.83;;;;;;;;;;5095344;28;20448;-70
2022/09/25 04:28:13;;;;;;;12.23;3.17;;;;;;;;;;5095014;28;20477;-70
2022/09/25 04:30:41;;;;;;;5.73;3.30;;;;;;;;;;5095648;28;20444;-70
2022/09/25 04:35:55;;;;;;;9.30;5.10;;;;;;;;;;5095239;28;20451;-70
2022/09/25 04:38:22;;;;;;;15.10;3.27;;;;;;;;;;5095074;28;20441;-70
2022/09/25 04:40:49;;;;;;;8.50;3.25;;;;;;;;;;5095425;28;20448;-69
2022/09/25 04:43:17;;;;;;;12.07;3.53;;;;;;;;;;5095080;28;20651;-70
2022/09/25 04:45:46;;;;;;;4.47;2.87;;;;;;;;;;5094106;28;20497;-70
2022/09/25 04:48:14;;;;;;;9.43;4.33;;;;;;;;;;5094992;28;20804;-69
2022/09/25 04:50:47;;;;;;;7.70;3.50;;;;;;;;;;5095182;28;20458;-71
2022/09/25 04:53:15;;;;;;;7.83;3.00;;;;;;;;;;5095299;28;20441;-70
2022/09/25 04:55:42;;;;;;;10.40;3.10;;;;;;;;;;5095164;28;20483;-71
2022/09/25 04:58:10;;;;;;;9.63;3.80;;;;;;;;;;5094633;28;20460;-71
2022/09/25 05:00:39;;;;;;;11.52;3.13;;;;;;;;;;5095026;28;20439;-71
2022/09/25 05:03:08;;;;;;;6.70;3.90;;;;;;;;;;5094712;28;20629;-69
2022/09/25 05:05:35;;;;;;;11.07;3.23;;;;;;;;;;5094886;28;20451;-70
2022/09/25 05:08:03;;;;;;;6.90;3.90;;;;;;;;;;5094715;28;20479;-68
2022/09/25 05:10:31;;;;;;;18.40;4.70;;;;;;;;;;5095114;28;20470;-70
2022/09/25 05:12:59;;;;;;;8.52;3.60;;;;;;;;;;5094532;28;20288;-71
2022/09/25 05:15:27;;;;;;;10.00;3.42;;;;;;;;;;5094684;28;20228;-71
2022/09/25 05:17:59;;;;;;;11.20;3.60;;;;;;;;;;5094516;28;20200;-68
2022/09/25 05:20:28;;;;;;;16.93;3.70;;;;;;;;;;5095142;28;20789;-70
2022/09/25 05:22:56;;;;;;;9.60;4.00;;;;;;;;;;5094277;28;20954;-70
2022/09/25 05:25:24;;;;;;;14.97;4.33;;;;;;;;;;5094580;28;20527;-71
2022/09/25 05:27:52;;;;;;;10.53;4.17;;;;;;;;;;5094020;28;20525;-70
2022/09/25 05:30:20;;;;;;;9.07;3.97;;;;;;;;;;5094185;28;20428;-70
2022/09/25 05:32:48;;;;;;;11.88;5.25;;;;;;;;;;5094160;28;20920;-70
2022/09/25 05:35:16;;;;;;;17.45;12.18;;;;;;;;;;5094278;28;20190;-70
2022/09/25 05:37:44;;;;;;;9.50;4.47;;;;;;;;;;5094052;28;20196;-70
2022/09/25 05:40:14;;;;;;;15.02;7.00;;;;;;;;;;5094213;28;20442;-70
2022/09/25 05:42:42;;;;;;;19.80;12.50;;;;;;;;;;5094634;28;20273;-71
2022/09/25 05:45:10;;;;;;;15.43;9.98;;;;;;;;;;5093829;28;20288;-70
2022/09/25 05:47:37;;;;;;;8.50;6.22;;;;;;;;;;5094287;28;20266;-70
2022/09/25 05:50:05;;;;;;;12.38;4.20;;;;;;;;;;5093790;28;20193;-70
2022/09/25 05:52:32;;;;;;;11.93;7.38;;;;;;;;;;5093764;28;20199;-70
2022/09/25 05:55:02;;;;;;;14.80;6.40;;;;;;;;;;5093845;28;20666;-70
2022/09/25 05:57:31;;;;;;;14.80;7.38;;;;;;;;;;5093303;28;20244;-69
2022/09/25 05:59:58;;;;;;;13.55;6.45;;;;;;;;;;5093723;28;20203;-69
2022/09/25 06:02:26;;;;;;;14.10;6.70;;;;;;;;;;5093926;28;20205;-70
2022/09/25 06:04:53;;;;;;;12.70;4.40;;;;;;;;;;5093957;28;20194;-70
2022/09/25 06:07:20;;;;;;;10.65;4.50;;;;;;;;;;5093511;28;20444;-71
2022/09/25 06:09:48;;;;;;;5.68;4.43;;;;;;;;;;5093272;28;20666;-70
2022/09/25 06:12:17;;;;;;;14.10;6.43;;;;;;;;;;5094068;28;20189;-70
2022/09/25 06:14:44;;;;;;;11.23;5.38;;;;;;;;;;5093234;28;20443;-70
2022/09/25 06:17:13;;;;;;;16.63;6.25;;;;;;;;;;5093491;28;20242;-70
2022/09/25 06:19:40;;;;;;;11.05;4.75;;;;;;;;;;5093372;28;20205;-70
2022/09/25 06:22:07;;;;;;;8.27;4.68;;;;;;;;;;5093092;28;20658;-71
2022/09/25 06:24:34;;;;;;;10.52;4.15;;;;;;;;;;5093050;28;20664;-70
2022/09/25 06:27:02;;;;;;;11.38;5.38;;;;;;;;;;5092425;28;20209;-69
2022/09/25 06:29:30;;;;;;;9.43;4.88;;;;;;;;;;5092198;28;20227;-68
2022/09/25 06:31:57;;;;;;;12.27;3.97;;;;;;;;;;5092855;28;20280;-69
2022/09/25 06:34:26;;;;;;;8.05;3.45;;;;;;;;;;5093248;28;20219;-69
2022/09/25 06:36:54;;;;;;;10.10;3.80;;;;;;;;;;5092797;28;20417;-70
2022/09/25 06:39:21;;;;;;;11.43;4.43;;;;;;;;;;5093148;28;20198;-70
2022/09/25 06:41:48;;;;;;;11.05;4.03;;;;;;;;;;5092839;28;20197;-70
2022/09/25 06:44:15;;;;;;;6.03;4.53;;;;;;;;;;5093131;28;20202;-70
2022/09/25 06:46:45;;;;;;;8.38;3.78;;;;;;;;;;5093180;28;20205;-70
2022/09/25 06:49:13;;;;;;;4.23;3.20;;;;;;;;;;5092715;28;20197;-69
2022/09/25 06:51:40;;;;;;;8.88;4.00;;;;;;;;;;5093267;28;20446;-70
2022/09/25 06:54:07;;;;;;;8.55;3.45;;;;;;;;;;5092657;28;20199;-69
2022/09/25 06:56:35;;;;;;;9.82;3.47;;;;;;;;;;5093294;28;20555;-70
2022/09/25 06:59:02;;;;;;;8.77;3.60;;;;;;;;;;5093466;28;20203;-70
2022/09/25 07:01:29;;;;;;;7.30;3.63;;;;;;;;;;5092976;28;20439;-70
2022/09/25 07:03:57;;;;;;;6.78;3.05;;;;;;;;;;5093183;28;20194;-70
2022/09/25 07:06:26;;;;;;;15.37;3.20;;;;;;;;;;5092732;28;20204;-70
2022/09/25 07:08:55;;;;;;;8.73;3.10;;;;;;;;;;5096022;28;20439;-70
2022/09/25 07:11:24;;;;;;;11.48;3.33;;;;;;;;;;5097111;28;20232;-70
2022/09/25 07:13:53;;;;;;;11.07;3.03;;;;;;;;;;5097224;28;20202;-70
2022/09/25 07:16:21;;;;;;;3.53;2.90;;;;;;;;;;5096642;28;20524;-70
2022/09/25 07:18:49;;;;;;;6.00;2.90;;;;;;;;;;5096754;28;20449;-69
2022/09/25 07:21:19;;;;;;;8.90;2.65;;;;;;;;;;5097026;28;20528;-70
2022/09/25 07:23:48;;;;;;;6.97;3.10;;;;;;;;;;5096962;28;20211;-72
2022/09/25 07:26:16;;;;;;;10.03;2.97;;;;;;;;;;5096883;28;20546;-71
2022/09/25 07:28:44;;;;;;;7.57;2.87;;;;;;;;;;5096940;28;20490;-71
2022/09/25 07:31:15;;;;;;;7.67;2.80;;;;;;;;;;5096718;28;20458;-71
2022/09/25 07:33:42;;;;;;;7.03;2.63;;;;;;;;;;5096570;28;20438;-71
2022/09/25 07:36:10;;;;;;;7.13;3.00;;;;;;;;;;5096267;28;20477;-70
2022/09/25 07:38:40;;;;;;;11.50;2.50;;;;;;;;;;5096767;28;20440;-71
2022/09/25 07:41:07;;;;;;;9.50;2.10;;;;;;;;;;5096684;28;20800;-71
2022/09/25 07:43:37;;;;;;;3.20;2.30;;;;;;;;;;5096307;28;20442;-70
2022/09/25 07:46:04;;;;;;;12.80;2.93;;;;;;;;;;5097012;28;20458;-66
2022/09/25 07:48:32;;;;;;;11.90;3.90;;;;;;;;;;5096549;28;20485;-71
2022/09/25 07:51:02;;;;;;;6.10;2.63;;;;;;;;;;5096628;28;20446;-70
2022/09/25 07:53:30;;;;;;;9.67;2.60;;;;;;;;;;5094898;28;20439;-70
2022/09/25 07:55:59;;;;;;;8.73;3.33;;;;;;;;;;5095831;28;20439;-70
2022/09/25 07:58:27;;;;;;;6.33;2.57;;;;;;;;;;5096164;28;20448;-70
2022/09/25 08:00:54;;;;;;;5.73;2.20;;;;;;;;;;5096073;28;20434;-70
2022/09/25 08:03:21;;;;;;;5.03;2.10;;;;;;;;;;5095773;28;20538;-70
2022/09/25 08:05:48;;;;;;;7.57;3.03;;;;;;;;;;5095881;28;20446;-70
2022/09/25 08:08:16;;;;;;;8.90;2.77;;;;;;;;;;5095754;28;20446;-71
2022/09/25 08:10:43;;;;;;;10.40;2.77;;;;;;;;;;5095564;28;20928;-70
2022/09/25 08:13:12;;;;;;;8.13;2.50;;;;;;;;;;5095681;28;20440;-70
2022/09/25 08:15:39;;;;;;;12.10;3.07;;;;;;;;;;5095753;28;20449;-70
2022/09/25 08:18:06;;;;;;;4.67;2.30;;;;;;;;;;5095891;28;20480;-70
2022/09/25 08:20:34;;;;;;;6.50;2.50;;;;;;;;;;5095038;28;20450;-70
2022/09/25 08:23:02;;;;;;;9.67;2.40;;;;;;;;;;5095108;28;20439;-70
2022/09/25 08:25:29;;;;;;;5.53;2.10;;;;;;;;;;5095266;28;20446;-70
2022/09/25 08:27:56;;;;;;;7.40;2.70;;;;;;;;;;5095202;28;20556;-70
2022/09/25 08:30:25;;;;;;;9.40;2.80;;;;;;;;;;5095705;28;20450;-71
2022/09/25 08:32:52;;;;;;;7.23;2.77;;;;;;;;;;5094961;28;20938;-69
2022/09/25 08:35:19;;;;;;;6.10;2.10;;;;;;;;;;5095314;28;20448;-69
2022/09/25 08:37:47;;;;;;;6.97;1.67;;;;;;;;;;5095076;28;20985;-69
2022/09/25 08:40:19;;;;;;;6.53;2.23;;;;;;;;;;5095587;28;20509;-69
2022/09/25 08:42:47;;;;;;;6.37;3.27;;;;;;;;;;5095305;28;20524;-69
2022/09/25 08:50:54;;;;;;;4.93;2.47;;;;;;;;;;5095003;28;20396;-70
2022/09/25 08:53:23;;;;;;;5.23;2.50;;;;;;;;;;5095038;28;20447;-69
2022/09/25 08:58:41;;;;;;;5.60;2.87;;;;;;;;;;5095271;28;20433;-70
2022/09/25 09:01:09;;;;;;;6.40;1.80;;;;;;;;;;5095026;28;20519;-69
2022/09/25 09:03:41;;;;;;;7.13;2.67;;;;;;;;;;5095020;28;20482;-69
2022/09/25 09:06:12;;;;;;;7.87;2.80;;;;;;;;;;5095213;28;20429;-69
2022/09/25 09:08:41;;;;;;;3.10;1.80;;;;;;;;;;5095047;28;20424;-69
2022/09/25 09:11:12;;;;;;;4.73;1.80;;;;;;;;;;5094830;28;20846;-71
2022/09/25 09:13:43;;;;;;;10.77;2.00;;;;;;;;;;5094507;28;20903;-69
2022/09/25 09:16:17;;;;;;;4.87;2.33;;;;;;;;;;5094610;28;20467;-69
2022/09/25 09:18:45;;;;;;;7.47;2.10;;;;;;;;;;5095055;28;20421;-70
2022/09/25 09:21:15;;;;;;;5.63;2.20;;;;;;;;;;5094209;28;20445;-69
2022/09/25 09:23:52;;;;;;;4.27;1.90;;;;;;;;;;5094314;28;20929;-69
2022/09/25 09:26:21;;;;;;;6.30;2.37;;;;;;;;;;5094397;28;20434;-70
2022/09/25 09:28:58;;;;;;;5.67;1.90;;;;;;;;;;5094381;28;20469;-69
2022/09/25 09:31:29;;;;;;;3.67;1.90;;;;;;;;;;5093455;28;20432;-69
2022/09/25 09:34:02;;;;;;;9.33;2.00;;;;;;;;;;5094346;28;20427;-69
2022/09/25 09:36:32;;;;;;;5.83;1.80;;;;;;;;;;5094608;28;20508;-69
2022/09/25 09:39:03;;;;;;;4.30;2.17;;;;;;;;;;5094478;28;20776;-69
2022/09/25 09:41:37;;;;;;;4.93;2.00;;;;;;;;;;5094534;28;20477;-69
2022/09/25 09:44:25;;;;;;;5.93;1.60;;;;;;;;;;5094807;28;20426;-70
2022/09/25 09:47:08;;;;;;;7.90;2.07;;;;;;;;;;5087864;28;20457;-69
2022/09/25 09:49:38;;;;;;;3.30;1.50;;;;;;;;;;5094063;28;20464;-70
2022/09/25 09:52:10;;;;;;;4.40;1.80;;;;;;;;;;5094381;28;20489;-70
2022/09/25 09:54:41;;;;;;;7.40;2.03;;;;;;;;;;5093550;28;20516;-69
2022/09/25 09:57:11;;;;;;;2.40;1.87;;;;;;;;;;5093871;28;20466;-69
2022/09/25 09:59:42;;;;;;;8.00;3.37;;;;;;;;;;5094493;28;20535;-70
2022/09/25 10:02:17;;;;;;;6.00;1.80;;;;;;;;;;5093619;28;20909;-69
2022/09/25 10:04:46;;;;;;;10.60;2.00;;;;;;;;;;5094021;28;20437;-69
2022/09/25 10:07:17;;;;;;;6.17;1.90;;;;;;;;;;5093780;28;20949;-68
2022/09/25 10:09:44;;;;;;;5.77;1.60;;;;;;;;;;5093547;28;20426;-69
2022/09/25 10:12:14;;;;;;;4.50;1.70;;;;;;;;;;5093320;28;20898;-68
2022/09/25 10:14:43;;;;;;;4.50;2.37;;;;;;;;;;5093381;28;20535;-68
2022/09/25 10:17:11;;;;;;;3.50;1.70;;;;;;;;;;5093015;28;20481;-68
2022/09/25 10:19:44;;;;;;;6.17;2.10;;;;;;;;;;5094112;28;20914;-69
2022/09/25 10:22:15;;;;;;;10.10;1.80;;;;;;;;;;5093220;28;20425;-68
2022/09/25 10:24:50;;;;;;;4.20;1.70;;;;;;;;;;5093018;28;20470;-69
2022/09/25 10:27:21;;;;;;;3.73;1.63;;;;;;;;;;5093223;28;20778;-68
2022/09/25 10:30:01;;;;;;;4.50;1.90;;;;;;;;;;5093536;28;20444;-68
2022/09/25 10:32:28;;;;;;;8.10;2.20;;;;;;;;;;5092976;28;20503;-68
2022/09/25 10:34:55;;;;;;;4.33;1.63;;;;;;;;;;5092582;28;20932;-68
2022/09/25 10:37:29;;;;;;;2.40;1.50;;;;;;;;;;5093293;28;20476;-68
2022/09/25 10:40:03;;;;;;;6.00;1.80;;;;;;;;;;5093135;28;20429;-69
2022/09/25 10:42:37;;;;;;;6.53;1.80;;;;;;;;;;5093174;28;20528;-68
2022/09/25 10:45:16;;;;;;;5.27;3.37;;;;;;;;;;5093048;28;20832;-68
2022/09/25 10:50:29;;;;;;;6.90;1.80;;;;;;;;;;5093029;28;20467;-69
2022/09/25 10:52:58;;;;;;;7.80;1.83;;;;;;;;;;5092754;28;20446;-68
2022/09/25 10:55:28;;;;;;;4.13;2.20;;;;;;;;;;5092345;28;20440;-68
2022/09/25 10:57:58;;;;;;;5.67;1.47;;;;;;;;;;5092495;28;20532;-69
2022/09/25 11:00:27;;;;;;;3.90;1.60;;;;;;;;;;5092853;28;20528;-69
2022/09/25 11:02:56;;;;;;;7.03;1.97;;;;;;;;;;5092401;28;20536;-68
2022/09/25 11:05:26;;;;;;;3.00;1.60;;;;;;;;;;5092523;28;20482;-69
2022/09/25 11:07:54;;;;;;;7.53;2.37;;;;;;;;;;5093049;28;20441;-70
2022/09/25 11:10:24;;;;;;;10.90;2.17;;;;;;;;;;5092668;28;20946;-70
2022/09/25 11:12:52;;;;;;;5.60;2.03;;;;;;;;;;5092877;28;20476;-70
2022/09/25 11:15:20;;;;;;;4.60;1.90;;;;;;;;;;5092339;28;20432;-69
2022/09/25 11:17:50;;;;;;;1.67;1.53;;;;;;;;;;5092322;28;20471;-70
2022/09/25 11:20:26;;;;;;;4.83;1.60;;;;;;;;;;5092463;28;20934;-70
2022/09/25 11:22:55;;;;;;;3.13;1.60;;;;;;;;;;5092164;28;20435;-69
2022/09/25 11:25:26;;;;;;;10.43;1.67;;;;;;;;;;5092104;28;20451;-70
2022/09/25 11:27:57;;;;;;;3.40;1.67;;;;;;;;;;5092121;28;20521;-69
2022/09/25 11:30:24;;;;;;;3.13;1.90;;;;;;;;;;5092865;28;20432;-70
2022/09/25 11:32:54;;;;;;;4.47;1.30;;;;;;;;;;5093213;28;20442;-68
2022/09/25 11:35:40;;;;;;;6.10;1.60;;;;;;;;;;5092679;28;20451;-70
2022/09/25 11:38:13;;;;;;;4.40;2.20;;;;;;;;;;5092790;28;20513;-68
2022/09/25 11:43:50;;;;;;;3.00;1.67;;;;;;;;;;5092626;28;20671;-68
2022/09/25 11:46:21;;;;;;;2.60;1.70;;;;;;;;;;5093253;28;20726;-69
2022/09/25 11:48:53;;;;;;;3.67;1.63;;;;;;;;;;5092384;28;20444;-68
2022/09/25 11:51:27;;;;;;;2.87;1.47;;;;;;;;;;5093506;28;20424;-70
2022/09/25 11:53:59;;;;;;;3.40;1.40;;;;;;;;;;5093581;28;20752;-69
2022/09/25 11:56:32;;;;;;;1.43;1.30;;;;;;;;;;5096913;28;20475;-69
2022/09/25 11:59:16;;;;;;;2.40;1.40;;;;;;;;;;5096533;28;20485;-70
2022/09/25 12:01:46;;;;;;;2.87;1.57;;;;;;;;;;5096241;28;20965;-70
2022/09/25 12:04:26;;;;;;;4.07;1.30;;;;;;;;;;5096585;28;20448;-69
2022/09/25 12:07:07;;;;;;;2.03;1.20;;;;;;;;;;5096021;28;20520;-69
2022/09/25 12:09:43;;;;;;;3.83;1.53;;;;;;;;;;5096336;28;20451;-69
2022/09/25 12:12:16;;;;;;;7.17;1.90;;;;;;;;;;5096724;28;20520;-69
2022/09/25 12:14:49;;;;;;;2.23;1.40;;;;;;;;;;5096057;28;20426;-69
2022/09/25 12:17:20;;;;;;;4.73;1.50;;;;;;;;;;5096035;28;20452;-70
2022/09/25 12:19:50;;;;;;;2.20;1.87;;;;;;;;;;5096166;28;20438;-69
2022/09/25 12:22:20;;;;;;;3.70;1.47;;;;;;;;;;5095799;28;20928;-69
2022/09/25 12:24:53;;;;;;;3.73;1.73;;;;;;;;;;5096408;28;20768;-69
2022/09/25 12:27:25;;;;;;;1.53;1.10;;;;;;;;;;5095523;28;20899;-69
2022/09/25 12:30:07;;;;;;;2.10;1.20;;;;;;;;;;5094278;28;20935;-68
2022/09/25 12:32:41;;;;;;;1.80;1.30;;;;;;;;;;5095244;28;20919;-70
2022/09/25 12:35:20;;;;;;;1.70;1.10;;;;;;;;;;5095584;28;20515;-70
2022/09/25 12:37:51;;;;;;;1.70;1.23;;;;;;;;;;5095510;28;20479;-69
2022/09/25 12:40:22;;;;;;;2.67;1.40;;;;;;;;;;5095642;28;20777;-69
2022/09/25 12:42:55;;;;;;;4.80;2.23;;;;;;;;;;5095088;28;20938;-69
2022/09/25 12:45:24;;;;;;;4.20;1.23;;;;;;;;;;5094961;28;20435;-69
2022/09/25 12:47:56;;;;;;;2.30;1.23;;;;;;;;;;5095118;28;20470;-69
2022/09/25 12:50:27;;;;;;;1.30;1.20;;;;;;;;;;5095162;28;20764;-69
2022/09/25 12:52:57;;;;;;;3.07;1.37;;;;;;;;;;5095206;28;20426;-69
2022/09/25 12:55:25;;;;;;;1.80;1.20;;;;;;;;;;5095015;28;20441;-69
2022/09/25 12:58:01;;;;;;;2.80;1.30;;;;;;;;;;5094804;28;21019;-69
2022/09/25 13:00:32;;;;;;;6.20;1.70;;;;;;;;;;5094643;28;20437;-69
2022/09/25 13:03:00;;;;;;;4.20;2.03;;;;;;;;;;5095302;28;20780;-70
2022/09/25 13:05:30;;;;;;;2.30;1.73;;;;;;;;;;5093667;28;20503;-69
2022/09/25 13:07:59;;;;;;;4.17;1.50;;;;;;;;;;5095214;28;20615;-70
2022/09/25 13:10:29;;;;;;;1.97;1.30;;;;;;;;;;5094217;28;20452;-69
2022/09/25 13:12:59;;;;;;;2.50;1.80;;;;;;;;;;5094400;28;20499;-70
2022/09/25 13:15:29;;;;;;;1.80;1.20;;;;;;;;;;5094263;28;20446;-71
2022/09/25 13:17:58;;;;;;;3.73;1.73;;;;;;;;;;5094313;28;20478;-71
2022/09/25 13:20:43;;;;;;;2.30;1.43;;;;;;;;;;5094536;28;20854;-70
2022/09/25 13:23:13;;;;;;;2.07;1.40;;;;;;;;;;5081703;28;20454;-70
2022/09/25 13:25:42;;;;;;;3.23;1.33;;;;;;;;;;5094400;28;20454;-70
2022/09/25 13:28:10;;;;;;;2.60;1.23;;;;;;;;;;5094724;28;20901;-72
2022/09/25 13:30:37;;;;;;;3.20;2.50;;;;;;;;;;5093900;28;20802;-72
2022/09/25 13:33:06;;;;;;;3.67;1.23;;;;;;;;;;5094324;28;20793;-73
2022/09/25 13:35:34;;;;;;;5.60;1.40;;;;;;;;;;5094200;28;20441;-67
2022/09/25 13:38:11;;;;;;;3.57;1.50;;;;;;;;;;5094374;28;20476;-70
2022/09/25 13:40:45;;;;;;;1.70;1.23;;;;;;;;;;5094210;28;20440;-70
2022/09/25 13:43:20;;;;;;;2.70;1.50;;;;;;;;;;5094096;28;20450;-70
2022/09/25 13:45:49;;;;;;;3.47;1.83;;;;;;;;;;5093876;28;20443;-71
2022/09/25 13:48:35;;;;;;;7.20;1.47;;;;;;;;;;5093943;28;20438;-72
2022/09/25 13:51:17;;;;;;;2.53;1.37;;;;;;;;;;5094399;28;20502;-74
2022/09/25 13:53:57;;;;;;;4.83;1.60;;;;;;;;;;5093137;28;20452;-73
2022/09/25 13:56:26;;;;;;;7.10;4.70;;;;;;;;;;5094143;28;20441;-73
2022/09/25 13:59:01;;;;;;;9.20;2.00;;;;;;;;;;5094347;28;20484;-73
2022/09/25 14:01:36;;;;;;;2.60;1.60;;;;;;;;;;5093641;28;20458;-73
2022/09/25 14:04:10;;;;;;;3.20;1.70;;;;;;;;;;5093695;28;20906;-73
2022/09/25 14:06:40;;;;;;;3.90;1.60;;;;;;;;;;5093813;28;20786;-72
2022/09/25 14:09:11;;;;;;;3.03;1.63;;;;;;;;;;5094077;28;20448;-73
2022/09/25 14:11:39;;;;;;;3.70;1.70;;;;;;;;;;5093986;28;20480;-73
2022/09/25 14:14:08;;;;;;;2.47;1.30;;;;;;;;;;5093589;28;20521;-73
2022/09/25 14:16:46;;;;;;;5.43;2.77;;;;;;;;;;5093312;28;20434;-73
2022/09/25 14:19:18;;;;;;;5.00;1.83;;;;;;;;;;5093759;28;20965;-73
2022/09/25 14:21:46;;;;;;;2.87;1.43;;;;;;;;;;5093386;28;20517;-73
2022/09/25 14:24:19;;;;;;;3.33;1.40;;;;;;;;;;5093512;28;20456;-73
2022/09/25 14:26:47;;;;;;;6.23;1.40;;;;;;;;;;5093705;28;20434;-73
2022/09/25 14:29:17;;;;;;;3.63;1.30;;;;;;;;;;5093101;28;20484;-72
2022/09/25 14:31:47;;;;;;;2.70;1.30;;;;;;;;;;5093379;28;20441;-73
2022/09/25 14:34:27;;;;;;;4.77;1.40;;;;;;;;;;5093329;28;20429;-73
2022/09/25 14:37:00;;;;;;;3.00;1.57;;;;;;;;;;5093185;28;20541;-72
2022/09/25 14:39:30;;;;;;;3.50;2.53;;;;;;;;;;5093248;28;20516;-73
2022/09/25 14:42:08;;;;;;;3.63;1.40;;;;;;;;;;5093522;28;20454;-73
2022/09/25 14:44:43;;;;;;;3.17;1.33;;;;;;;;;;5093749;28;20440;-73
2022/09/25 14:47:11;;;;;;;2.07;1.63;;;;;;;;;;5093533;28;20496;-73
2022/09/25 14:49:40;;;;;;;3.33;2.37;;;;;;;;;;5093256;28;20909;-74
2022/09/25 14:52:09;;;;;;;4.47;2.73;;;;;;;;;;5093320;28;20780;-72
2022/09/25 14:54:39;;;;;;;2.43;1.40;;;;;;;;;;5093076;28;20914;-71
2022/09/25 14:57:10;;;;;;;2.83;1.53;;;;;;;;;;5092726;28;20441;-71
2022/09/25 14:59:41;;;;;;;8.87;4.20;;;;;;;;;;5092823;28;20843;-71
2022/09/25 15:02:14;;;;;;;4.57;1.90;;;;;;;;;;5093020;28;20425;-72
2022/09/25 15:04:41;;;;;;;2.57;2.10;;;;;;;;;;5092993;28;20449;-72
2022/09/25 15:07:15;;;;;;;6.20;1.73;;;;;;;;;;5090919;28;20978;-71
2022/09/25 15:09:47;;;;;;;4.40;1.87;;;;;;;;;;5072566;28;20906;-72
2022/09/25 15:12:19;;;;;;;3.27;1.57;;;;;;;;;;5072431;28;20472;-72
2022/09/25 15:14:59;;;;;;;3.17;1.40;;;;;;;;;;5072719;28;20810;-71
2022/09/25 15:17:26;;;;;;;2.70;1.70;;;;;;;;;;5072282;28;20533;-71